Time;durP1;ratioP1;P1;durP2;ratioP2;P2;SDS_P1;SDS_P2;PMS_P1;PMS_P2;Temp;Humidity;BMP_temperature;BMP_pressure;BME280_temperature;BME280_humidity;BME280_pressure;Samples;Min_cycle;Max_cycle;Signal;HPM_P1;HPM_P2
2023/08/30 00:00:17;;;;;;;5.40;4.83;;;14.30;99.90;;;;;;5000279;28;20949;-80
2023/08/30 00:02:44;;;;;;;6.43;4.83;;;14.30;99.90;;;;;;5002626;28;20520;-79
2023/08/30 00:05:10;;;;;;;6.27;5.50;;;14.30;99.90;;;;;;5007768;28;20290;-84
2023/08/30 00:07:35;;;;;;;9.30;5.03;;;14.80;99.90;;;;;;4995536;28;21321;-80
2023/08/30 00:10:02;;;;;;;4.80;4.33;;;14.30;99.90;;;;;;4999060;28;20442;-84
2023/08/30 00:12:27;;;;;;;7.07;5.20;;;14.30;99.90;;;;;;4998788;28;20203;-83
2023/08/30 00:14:53;;;;;;;7.50;5.73;;;14.10;99.90;;;;;;5000047;28;21057;-80
2023/08/30 00:17:19;;;;;;;5.60;4.97;;;14.00;99.90;;;;;;5003978;28;20183;-79
2023/08/30 00:19:45;;;;;;;5.27;4.80;;;13.90;99.90;;;;;;5003168;28;20589;-80
2023/08/30 00:22:12;;;;;;;7.10;5.37;;;13.80;99.90;;;;;;5004374;28;20478;-81
2023/08/30 00:24:38;;;;;;;6.00;5.50;;;13.70;99.90;;;;;;5001585;28;20457;-82
2023/08/30 00:27:04;;;;;;;7.70;6.13;;;13.70;99.90;;;;;;4997028;28;21009;-79
2023/08/30 00:29:29;;;;;;;6.97;6.37;;;13.70;99.90;;;;;;5000048;28;20441;-80
2023/08/30 00:31:55;;;;;;;8.40;6.97;;;13.60;99.90;;;;;;5003093;28;20290;-78
2023/08/30 00:34:21;;;;;;;8.00;7.20;;;13.60;99.90;;;;;;4998500;28;20207;-83
2023/08/30 00:36:47;;;;;;;6.87;6.07;;;13.50;99.90;;;;;;4997902;28;20442;-83
2023/08/30 00:39:13;;;;;;;9.70;7.07;;;13.50;99.90;;;;;;4999796;28;20255;-80
2023/08/30 00:41:38;;;;;;;8.03;6.80;;;13.40;99.90;;;;;;4997596;28;20203;-85
2023/08/30 00:44:04;;;;;;;10.37;6.17;;;13.40;99.90;;;;;;5002733;28;20457;-81
2023/08/30 00:46:30;;;;;;;9.80;5.40;;;13.40;99.90;;;;;;5020701;28;20179;-83
2023/08/30 00:48:56;;;;;;;7.07;6.40;;;13.30;99.90;;;;;;5020276;28;20930;-81
2023/08/30 00:51:22;;;;;;;7.07;6.37;;;13.30;99.90;;;;;;5002044;28;20464;-79
2023/08/30 00:53:48;;;;;;;8.43;7.40;;;13.30;99.90;;;;;;5017051;28;20494;-79
2023/08/30 00:56:14;;;;;;;9.57;7.10;;;13.30;99.90;;;;;;5010087;28;20195;-81
2023/08/30 00:58:39;;;;;;;10.27;6.07;;;13.30;99.90;;;;;;5008394;28;20429;-82
2023/08/30 01:01:08;;;;;;;6.40;5.70;;;13.30;99.90;;;;;;5007332;28;20327;-83
2023/08/30 01:03:34;;;;;;;10.60;7.60;;;13.20;99.90;;;;;;5006035;28;20198;-83
2023/08/30 01:06:00;;;;;;;9.03;7.17;;;13.10;99.90;;;;;;5004220;28;20967;-82
2023/08/30 01:08:26;;;;;;;6.80;6.13;;;13.20;99.90;;;;;;5003355;28;20433;-83
2023/08/30 01:11:04;;;;;;;8.50;6.73;;;13.20;99.90;;;;;;4998512;28;20302;-77
2023/08/30 01:13:33;;;;;;;9.80;6.93;;;13.10;99.90;;;;;;5000332;28;20944;-79
2023/08/30 01:16:00;;;;;;;7.13;6.40;;;13.10;99.90;;;;;;5002530;28;20479;-82
2023/08/30 01:18:28;;;;;;;8.60;7.70;;;13.10;99.90;;;;;;5002687;28;20469;-81
2023/08/30 01:20:55;;;;;;;8.97;7.70;;;13.00;99.90;;;;;;5000345;28;20467;-84
2023/08/30 01:23:44;;;;;;;8.03;6.50;;;12.90;99.90;;;;;;5000488;28;20425;-85
2023/08/30 01:26:22;;;;;;;7.30;6.40;;;12.90;99.90;;;;;;4996145;28;20461;-83
2023/08/30 01:28:49;;;;;;;6.33;5.70;;;12.80;99.90;;;;;;4999577;28;21385;-83
2023/08/30 01:31:15;;;;;;;8.27;6.63;;;12.70;99.90;;;;;;4999707;28;20548;-80
2023/08/30 01:33:42;;;;;;;5.93;5.40;;;12.60;99.90;;;;;;5002943;28;20469;-80
2023/08/30 01:36:08;;;;;;;6.90;6.30;;;12.60;99.90;;;;;;4998461;28;20441;-82
2023/08/30 01:38:35;;;;;;;7.17;6.43;;;12.60;99.90;;;;;;4999879;28;20453;-82
2023/08/30 01:41:01;;;;;;;6.60;5.90;;;12.60;99.90;;;;;;5010503;28;20500;-82
2023/08/30 01:43:30;;;;;;;6.60;6.00;;;12.60;99.90;;;;;;5007040;28;20441;-79
2023/08/30 01:45:58;;;;;;;7.40;6.40;;;12.50;99.90;;;;;;5004656;28;20439;-78
2023/08/30 01:48:24;;;;;;;7.70;6.70;;;12.60;99.90;;;;;;5001831;28;20939;-80
2023/08/30 01:50:50;;;;;;;8.63;6.53;;;12.50;99.90;;;;;;5002895;28;20521;-79
2023/08/30 01:53:16;;;;;;;7.20;6.50;;;12.50;99.90;;;;;;5002061;28;20535;-79
2023/08/30 01:55:42;;;;;;;6.30;5.30;;;12.50;99.90;;;;;;5009882;28;20564;-79
2023/08/30 01:58:09;;;;;;;6.50;5.80;;;12.50;99.90;;;;;;5008588;28;20477;-82
2023/08/30 02:00:35;;;;;;;10.20;5.90;;;12.40;99.90;;;;;;5000189;28;20441;-81
2023/08/30 02:03:11;;;;;;;9.00;5.55;;;12.20;99.90;;;;;;5002766;28;20607;-84
2023/08/30 02:05:47;;;;;;;6.20;5.60;;;12.30;99.90;;;;;;5002319;28;20189;-80
2023/08/30 02:08:16;;;;;;;7.00;5.80;;;12.20;99.90;;;;;;5003174;28;20429;-83
2023/08/30 02:10:59;;;;;;;7.43;6.60;;;12.10;99.90;;;;;;5002464;28;20278;-83
2023/08/30 02:13:30;;;;;;;6.10;5.50;;;12.00;99.90;;;;;;5005859;28;20871;-78
2023/08/30 02:15:58;;;;;;;8.93;6.20;;;11.90;99.90;;;;;;5006486;28;20190;-79
2023/08/30 02:18:25;;;;;;;7.97;6.15;;;11.90;99.90;;;;;;5001282;28;20229;-77
2023/08/30 02:20:51;;;;;;;6.23;5.60;;;12.00;99.90;;;;;;5017774;28;20278;-80
2023/08/30 02:23:16;;;;;;;10.93;6.70;;;11.80;99.90;;;;;;5008706;28;20988;-83
2023/08/30 02:25:42;;;;;;;6.67;6.07;;;11.70;99.90;;;;;;5005450;28;20182;-82
2023/08/30 02:28:08;;;;;;;7.73;7.00;;;11.80;99.90;;;;;;5004632;28;20572;-79
2023/08/30 02:30:33;;;;;;;8.53;5.53;;;11.90;99.90;;;;;;5001303;28;20189;-80
2023/08/30 02:32:59;;;;;;;6.97;6.30;;;12.00;99.90;;;;;;5020991;28;20472;-76
2023/08/30 02:35:24;;;;;;;7.57;6.77;;;12.00;99.90;;;;;;5013786;28;20236;-82
2023/08/30 02:37:50;;;;;;;9.00;5.80;;;12.20;99.90;;;;;;5003795;28;20202;-78
2023/08/30 02:40:15;;;;;;;7.27;6.53;;;12.20;99.90;;;;;;5007880;28;20910;-81
2023/08/30 02:42:41;;;;;;;7.10;6.40;;;12.30;99.90;;;;;;5012347;28;20236;-82
2023/08/30 02:45:07;;;;;;;9.27;7.60;;;12.40;99.90;;;;;;5005325;28;20568;-82
2023/08/30 02:47:32;;;;;;;15.10;9.03;;;12.40;99.90;;;;;;5006417;28;20658;-80
2023/08/30 02:49:58;;;;;;;14.70;8.80;;;12.50;99.90;;;;;;5005555;28;20445;-83
2023/08/30 02:52:23;;;;;;;10.07;9.07;;;12.50;99.90;;;;;;5003961;28;20206;-80
2023/08/30 02:54:49;;;;;;;19.93;9.93;;;12.60;99.90;;;;;;5004984;28;20257;-84
2023/08/30 02:57:14;;;;;;;17.07;10.77;;;12.60;99.90;;;;;;5007460;28;20179;-83
2023/08/30 02:59:40;;;;;;;14.70;11.07;;;12.60;99.90;;;;;;5006009;28;20206;-82
2023/08/30 03:02:05;;;;;;;14.97;11.50;;;12.60;99.90;;;;;;5006091;28;20235;-84
2023/08/30 03:04:31;;;;;;;14.73;11.33;;;12.50;99.90;;;;;;5000705;28;20876;-83
2023/08/30 03:06:56;;;;;;;15.63;10.87;;;12.60;99.90;;;;;;5005851;28;20187;-79
2023/08/30 03:09:22;;;;;;;15.40;12.57;;;12.60;99.90;;;;;;5002568;28;20175;-78
2023/08/30 03:11:47;;;;;;;12.93;9.93;;;12.70;99.90;;;;;;4999775;28;20693;-82
2023/08/30 03:14:13;;;;;;;13.10;10.20;;;12.80;99.90;;;;;;4999446;28;20210;-79
2023/08/30 03:16:39;;;;;;;11.97;9.57;;;13.00;99.90;;;;;;5001778;28;20183;-81
2023/08/30 03:19:04;;;;;;;10.60;9.60;;;13.00;99.90;;;;;;4999308;28;21181;-80
2023/08/30 03:21:30;;;;;;;11.13;8.43;;;12.80;99.90;;;;;;5000897;28;20289;-84
2023/08/30 03:23:55;;;;;;;9.90;8.33;;;12.80;99.90;;;;;;4996488;28;20286;-83
2023/08/30 03:26:21;;;;;;;13.30;9.70;;;13.00;99.90;;;;;;5001990;28;20635;-80
2023/08/30 03:28:46;;;;;;;10.13;8.63;;;13.00;99.90;;;;;;5000359;28;20253;-82
2023/08/30 03:31:13;;;;;;;8.60;7.70;;;13.00;99.90;;;;;;5002276;28;20210;-81
2023/08/30 03:33:41;;;;;;;7.80;6.73;;;13.10;99.90;;;;;;4999064;28;20189;-80
2023/08/30 03:36:07;;;;;;;7.27;6.57;;;13.10;99.90;;;;;;5000369;28;20448;-82
2023/08/30 03:38:32;;;;;;;8.50;6.37;;;13.10;99.90;;;;;;5006023;28;20478;-82
2023/08/30 03:40:58;;;;;;;8.23;6.03;;;13.10;99.90;;;;;;5008714;28;20437;-80
2023/08/30 03:43:23;;;;;;;7.90;6.40;;;13.20;99.90;;;;;;5004773;28;20733;-85
2023/08/30 03:45:49;;;;;;;10.90;7.13;;;13.20;99.90;;;;;;4997244;28;20190;-79
2023/08/30 03:48:14;;;;;;;9.40;7.70;;;13.20;99.90;;;;;;4998482;28;20239;-79
2023/08/30 03:50:40;;;;;;;9.63;8.20;;;13.20;99.90;;;;;;4995341;28;20182;-81
2023/08/30 03:53:05;;;;;;;15.50;10.87;;;13.20;99.90;;;;;;5002705;28;20740;-82
2023/08/30 03:55:31;;;;;;;13.93;12.43;;;13.10;99.90;;;;;;5000081;28;20206;-82
2023/08/30 03:57:56;;;;;;;11.37;10.20;;;13.10;99.90;;;;;;4999351;28;20242;-83
2023/08/30 04:00:22;;;;;;;12.57;11.20;;;13.00;99.90;;;;;;4997857;28;20260;-78
2023/08/30 04:02:48;;;;;;;17.57;11.87;;;13.00;99.90;;;;;;5001962;28;20205;-84
2023/08/30 04:05:13;;;;;;;11.63;10.40;;;13.10;99.90;;;;;;5004421;28;20194;-79
2023/08/30 04:07:39;;;;;;;16.73;9.97;;;13.10;99.90;;;;;;5001900;28;20445;-84
2023/08/30 04:10:07;;;;;;;14.37;11.20;;;13.20;99.90;;;;;;5010542;28;20186;-76
2023/08/30 04:12:33;;;;;;;11.63;10.13;;;13.30;99.90;;;;;;5015717;28;20265;-84
2023/08/30 04:15:00;;;;;;;12.60;11.40;;;13.30;99.90;;;;;;5009092;28;20445;-80
2023/08/30 04:17:26;;;;;;;14.50;10.50;;;13.40;99.90;;;;;;5013728;28;20422;-80
2023/08/30 04:19:52;;;;;;;11.10;10.00;;;13.50;99.90;;;;;;5006492;28;20514;-85
2023/08/30 04:22:18;;;;;;;10.60;9.10;;;13.40;99.90;;;;;;5002256;28;20285;-83
2023/08/30 04:24:44;;;;;;;10.53;9.47;;;13.30;99.90;;;;;;4998851;28;20500;-77
2023/08/30 04:27:09;;;;;;;11.93;8.87;;;13.30;99.90;;;;;;5001120;28;20433;-82
2023/08/30 04:29:35;;;;;;;9.00;8.10;;;13.40;99.90;;;;;;5000617;28;20198;-80
2023/08/30 04:32:00;;;;;;;9.03;8.17;;;13.30;99.90;;;;;;5006357;28;20270;-84
2023/08/30 04:34:26;;;;;;;7.20;6.60;;;14.30;99.90;;;;;;4996558;28;20208;-81
2023/08/30 04:36:52;;;;;;;9.30;7.87;;;13.40;99.90;;;;;;5001254;28;20211;-81
2023/08/30 04:39:17;;;;;;;9.13;8.23;;;13.30;99.90;;;;;;4999451;28;20179;-85
2023/08/30 04:41:43;;;;;;;8.07;7.10;;;13.30;99.90;;;;;;5000624;28;20331;-86
2023/08/30 04:44:08;;;;;;;8.77;7.80;;;13.30;99.90;;;;;;5000379;28;20201;-81
2023/08/30 04:46:34;;;;;;;8.63;7.73;;;13.20;99.90;;;;;;4998764;28;20190;-81
2023/08/30 04:48:59;;;;;;;9.13;7.10;;;13.30;99.90;;;;;;4997260;28;20193;-82
2023/08/30 04:51:25;;;;;;;8.80;7.90;;;13.40;99.90;;;;;;4998211;28;20210;-81
2023/08/30 04:53:50;;;;;;;9.67;8.00;;;13.50;99.90;;;;;;4999185;28;20206;-81
2023/08/30 04:56:18;;;;;;;19.83;9.43;;;13.50;99.90;;;;;;4999698;28;20586;-81
2023/08/30 04:58:43;;;;;;;9.00;7.60;;;13.60;99.90;;;;;;5009183;28;20218;-79
2023/08/30 05:01:11;;;;;;;9.73;8.23;;;13.70;99.90;;;;;;5001876;28;20449;-84
2023/08/30 05:03:36;;;;;;;8.40;7.60;;;13.70;99.90;;;;;;4999065;28;20509;-81
2023/08/30 05:06:02;;;;;;;8.80;7.90;;;13.80;99.90;;;;;;5000488;28;20434;-80
2023/08/30 05:08:27;;;;;;;8.00;7.30;;;13.90;99.90;;;;;;4997794;28;20257;-82
2023/08/30 05:10:56;;;;;;;8.77;7.00;;;13.90;99.90;;;;;;4997764;28;20225;-82
2023/08/30 05:13:21;;;;;;;9.07;6.47;;;13.90;99.90;;;;;;4997121;28;20224;-83
2023/08/30 05:15:47;;;;;;;7.30;6.30;;;14.00;99.90;;;;;;4997757;28;20480;-82
2023/08/30 05:18:12;;;;;;;5.90;5.40;;;14.00;99.90;;;;;;4992868;28;20178;-82
2023/08/30 05:20:38;;;;;;;7.03;5.20;;;14.10;99.90;;;;;;5000462;28;20183;-81
2023/08/30 05:23:03;;;;;;;6.60;5.93;;;14.20;99.90;;;;;;5004898;28;20205;-81
2023/08/30 05:25:29;;;;;;;6.80;5.50;;;14.10;99.90;;;;;;4999239;28;20190;-79
2023/08/30 05:27:54;;;;;;;6.13;5.63;;;14.20;99.90;;;;;;4990586;28;20213;-83
2023/08/30 05:30:20;;;;;;;5.60;5.10;;;14.10;99.90;;;;;;4997803;28;20189;-82
2023/08/30 05:32:45;;;;;;;6.80;6.10;;;14.20;99.90;;;;;;4997189;28;20253;-80
2023/08/30 05:35:11;;;;;;;6.03;5.53;;;14.20;99.90;;;;;;5000264;28;20282;-82
2023/08/30 05:37:36;;;;;;;6.73;5.17;;;14.30;99.90;;;;;;5005531;28;20204;-83
2023/08/30 05:40:03;;;;;;;7.87;6.47;;;14.40;99.90;;;;;;5006720;28;20663;-79
2023/08/30 05:42:29;;;;;;;5.57;5.07;;;14.50;99.90;;;;;;5014497;28;20245;-79
2023/08/30 05:44:54;;;;;;;6.60;5.33;;;14.50;99.90;;;;;;5000593;28;20438;-82
2023/08/30 05:47:20;;;;;;;6.97;5.37;;;14.60;99.90;;;;;;5001830;28;20179;-78
2023/08/30 05:49:46;;;;;;;5.47;5.00;;;14.70;99.90;;;;;;5006208;28;20198;-79
2023/08/30 05:52:12;;;;;;;10.20;6.50;;;14.90;99.90;;;;;;4996437;28;20496;-80
2023/08/30 05:54:37;;;;;;;11.90;9.23;;;14.90;99.90;;;;;;4995202;28;20207;-82
2023/08/30 05:57:03;;;;;;;10.93;9.40;;;14.90;99.90;;;;;;4998244;28;20191;-83
2023/08/30 05:59:29;;;;;;;11.97;7.07;;;14.80;99.90;;;;;;4997507;28;20183;-83
2023/08/30 06:01:54;;;;;;;6.57;5.90;;;14.80;99.90;;;;;;4996847;28;20203;-81
2023/08/30 06:04:20;;;;;;;7.77;6.00;;;14.90;99.90;;;;;;4995444;28;20190;-83
2023/08/30 06:06:46;;;;;;;6.20;5.60;;;15.10;99.90;;;;;;4994854;28;20663;-81
2023/08/30 06:09:14;;;;;;;7.40;5.10;;;15.30;99.90;;;;;;4997118;28;20191;-84
2023/08/30 06:11:40;;;;;;;5.10;4.50;;;15.50;99.90;;;;;;4997027;28;20450;-82
2023/08/30 06:14:06;;;;;;;5.83;5.30;;;15.70;99.90;;;;;;4998776;28;20469;-82
2023/08/30 06:16:31;;;;;;;7.23;4.00;;;15.70;99.90;;;;;;5005561;28;20179;-78
2023/08/30 06:18:58;;;;;;;5.17;4.67;;;15.90;99.90;;;;;;5018889;28;20425;-81
2023/08/30 06:21:24;;;;;;;12.63;4.80;;;16.10;99.90;;;;;;5004178;28;20203;-81
2023/08/30 06:23:50;;;;;;;5.00;3.53;;;16.30;99.90;;;;;;5001225;28;20449;-83
2023/08/30 06:26:16;;;;;;;5.37;4.03;;;16.40;99.90;;;;;;5000816;28;20537;-82
2023/08/30 06:28:42;;;;;;;5.20;4.67;;;16.50;99.90;;;;;;5000916;28;20233;-80
2023/08/30 06:31:08;;;;;;;4.20;3.80;;;16.60;99.90;;;;;;5007059;28;20679;-85
2023/08/30 06:33:33;;;;;;;5.67;4.10;;;16.70;99.90;;;;;;5002238;28;20438;-81
2023/08/30 06:35:59;;;;;;;4.87;4.17;;;16.90;99.90;;;;;;5006321;28;20183;-80
2023/08/30 06:38:24;;;;;;;5.90;3.43;;;17.10;99.90;;;;;;5002474;28;20178;-81
2023/08/30 06:40:50;;;;;;;4.40;4.00;;;17.40;99.90;;;;;;4999768;28;20674;-82
2023/08/30 06:43:15;;;;;;;12.33;3.90;;;17.60;99.90;;;;;;5002127;28;20187;-80
2023/08/30 06:45:42;;;;;;;3.83;3.30;;;17.90;99.90;;;;;;5002492;28;20182;-80
2023/08/30 06:48:08;;;;;;;4.57;3.53;;;18.20;99.90;;;;;;4998864;28;20698;-81
2023/08/30 06:50:34;;;;;;;4.30;3.30;;;18.50;99.90;;;;;;5001976;28;20436;-81
2023/08/30 06:53:01;;;;;;;3.37;3.07;;;18.90;99.90;;;;;;4999364;28;20461;-80
2023/08/30 06:55:26;;;;;;;9.17;4.23;;;19.10;99.90;;;;;;5001697;28;20516;-80
2023/08/30 06:57:52;;;;;;;5.93;3.70;;;19.10;99.90;;;;;;5015822;28;20402;-75
2023/08/30 07:00:18;;;;;;;8.00;4.80;;;19.20;99.90;;;;;;5014706;28;20187;-78
2023/08/30 07:02:45;;;;;;;6.53;5.90;;;19.00;99.90;;;;;;5004377;28;20222;-79
2023/08/30 07:05:11;;;;;;;4.80;4.20;;;18.20;99.90;;;;;;5006371;28;20175;-83
2023/08/30 07:07:37;;;;;;;5.17;4.70;;;17.70;99.90;;;;;;5001614;28;20430;-82
2023/08/30 07:10:03;;;;;;;6.70;5.60;;;17.80;99.90;;;;;;5006598;28;20439;-79
2023/08/30 07:12:28;;;;;;;8.20;5.30;;;17.70;99.90;;;;;;5000393;28;20302;-79
2023/08/30 07:14:54;;;;;;;6.93;5.70;;;17.80;99.90;;;;;;5004655;28;20535;-82
2023/08/30 07:17:20;;;;;;;7.10;5.43;;;17.90;99.90;;;;;;5001407;28;20182;-80
2023/08/30 07:19:45;;;;;;;6.17;5.57;;;17.90;99.90;;;;;;5005562;28;20183;-80
2023/08/30 07:22:11;;;;;;;7.23;5.30;;;18.00;99.90;;;;;;5012251;28;20290;-82
2023/08/30 07:24:36;;;;;;;9.73;5.30;;;18.10;99.90;;;;;;5003486;28;20186;-81
2023/08/30 07:27:02;;;;;;;5.03;4.60;;;18.10;99.90;;;;;;5001223;28;20281;-83
2023/08/30 07:29:28;;;;;;;3.70;3.40;;;18.00;99.90;;;;;;5000133;28;20210;-82
2023/08/30 07:31:54;;;;;;;3.60;3.30;;;18.10;99.90;;;;;;5001180;28;20500;-83
2023/08/30 07:34:20;;;;;;;4.07;3.57;;;18.10;99.90;;;;;;5001791;28;20282;-81
2023/08/30 07:36:46;;;;;;;5.50;3.47;;;18.30;99.90;;;;;;5005182;28;20501;-82
2023/08/30 07:39:12;;;;;;;5.50;3.50;;;18.20;99.90;;;;;;5003533;28;21510;-82
2023/08/30 07:41:37;;;;;;;3.90;3.60;;;18.40;99.90;;;;;;5001015;28;20658;-80
2023/08/30 07:44:03;;;;;;;3.93;3.20;;;18.70;99.90;;;;;;5000823;28;20433;-83
2023/08/30 07:46:29;;;;;;;3.47;3.17;;;18.70;99.90;;;;;;5002627;28;20255;-84
2023/08/30 07:48:55;;;;;;;4.40;2.97;;;18.70;99.90;;;;;;5004015;28;20252;-81
2023/08/30 07:51:21;;;;;;;4.63;3.40;;;18.60;99.90;;;;;;5002045;28;20207;-84
2023/08/30 07:53:46;;;;;;;4.40;3.93;;;18.70;99.90;;;;;;5002347;28;20441;-81
2023/08/30 07:56:12;;;;;;;3.57;3.27;;;19.20;99.90;;;;;;5003361;28;20442;-81
2023/08/30 07:58:37;;;;;;;3.50;3.20;;;19.70;99.90;;;;;;5001963;28;20778;-81
2023/08/30 08:01:03;;;;;;;3.43;3.13;;;20.40;99.90;;;;;;5000901;28;20278;-84
2023/08/30 08:03:28;;;;;;;2.87;2.27;;;21.90;99.90;;;;;;5003542;28;20197;-77
2023/08/30 08:05:54;;;;;;;3.67;2.50;;;23.70;99.90;;;;;;5000828;28;20191;-84
2023/08/30 08:08:20;;;;;;;2.80;2.60;;;;;;;;;;5000889;28;20193;-79
2023/08/30 08:10:45;;;;;;;3.93;2.70;;;25.80;99.90;;;;;;5001046;28;20193;-79
2023/08/30 08:13:12;;;;;;;2.70;2.50;;;26.90;99.90;;;;;;5000363;28;20594;-78
2023/08/30 08:15:38;;;;;;;2.67;2.33;;;28.00;99.90;;;;;;4998311;28;20212;-79
2023/08/30 08:18:04;;;;;;;3.97;2.63;;;28.70;99.90;;;;;;5008175;28;20524;-81
2023/08/30 08:20:30;;;;;;;4.00;2.80;;;28.50;98.30;;;;;;5014150;28;20247;-80
2023/08/30 08:22:56;;;;;;;3.70;2.87;;;29.90;97.60;;;;;;5009982;28;20203;-78
2023/08/30 08:25:23;;;;;;;2.63;2.40;;;29.30;96.30;;;;;;5008019;28;20481;-81
2023/08/30 08:27:50;;;;;;;3.20;2.90;;;28.10;95.50;;;;;;5006265;28;20218;-81
2023/08/30 08:30:16;;;;;;;6.10;2.90;;;27.40;95.40;;;;;;5007923;28;20432;-83
2023/08/30 08:32:41;;;;;;;3.40;3.10;;;26.50;97.30;;;;;;5004375;28;20442;-83
2023/08/30 08:35:07;;;;;;;2.93;2.63;;;26.80;99.90;;;;;;5006275;28;20206;-83
2023/08/30 08:37:33;;;;;;;2.93;2.73;;;27.60;99.20;;;;;;5006478;28;20204;-82
2023/08/30 08:39:58;;;;;;;3.10;2.80;;;26.10;97.60;;;;;;5001346;28;20527;-83
2023/08/30 08:42:24;;;;;;;3.37;3.07;;;25.60;99.90;;;;;;4995607;28;20212;-79
2023/08/30 08:44:54;;;;;;;4.40;3.13;;;25.30;99.90;;;;;;5001662;28;20182;-81
2023/08/30 08:47:20;;;;;;;3.73;2.80;;;24.30;99.90;;;;;;5004471;28;20266;-82
2023/08/30 08:49:47;;;;;;;3.30;2.80;;;24.80;99.90;;;;;;5004332;28;20448;-81
2023/08/30 08:52:14;;;;;;;3.10;2.90;;;25.20;99.90;;;;;;4997550;28;20461;-84
2023/08/30 08:54:41;;;;;;;3.50;3.20;;;24.90;99.90;;;;;;5003974;28;20475;-81
2023/08/30 08:57:07;;;;;;;3.23;2.97;;;24.80;99.90;;;;;;4998296;28;20429;-80
2023/08/30 08:59:32;;;;;;;4.53;3.10;;;24.70;99.90;;;;;;5006029;28;20439;-82
2023/08/30 09:02:00;;;;;;;4.20;3.53;;;25.30;99.90;;;;;;4994285;28;20850;-81
2023/08/30 09:04:26;;;;;;;5.33;3.20;;;24.80;99.90;;;;;;4997779;28;20218;-82
2023/08/30 09:06:52;;;;;;;10.43;3.40;;;24.70;99.90;;;;;;5002238;28;20441;-80
2023/08/30 09:09:17;;;;;;;4.83;3.70;;;24.90;99.90;;;;;;4998297;28;20447;-78
2023/08/30 09:11:43;;;;;;;4.43;3.00;;;24.90;99.90;;;;;;4990627;28;20219;-82
2023/08/30 09:14:09;;;;;;;3.30;3.00;;;;;;;;;;5003001;28;20291;-79
2023/08/30 09:16:35;;;;;;;3.50;2.80;;;26.60;99.80;;;;;;4990847;28;22241;-82
2023/08/30 09:19:01;;;;;;;3.80;3.33;;;25.70;99.90;;;;;;4993862;28;20531;-82
2023/08/30 09:21:27;;;;;;;10.43;3.50;;;25.70;99.90;;;;;;4990342;28;20429;-78
2023/08/30 09:23:59;;;;;;;4.63;3.50;;;25.10;99.90;;;;;;4996194;28;20444;-78
2023/08/30 09:26:25;;;;;;;3.80;3.50;;;26.20;99.90;;;;;;4995338;28;20591;-84
2023/08/30 09:28:50;;;;;;;4.00;3.40;;;25.40;99.90;;;;;;5009243;28;20912;-86
2023/08/30 09:31:20;;;;;;;6.40;3.87;;;25.50;99.90;;;;;;5008834;28;20453;-81
2023/08/30 09:33:47;;;;;;;3.73;3.43;;;25.60;99.90;;;;;;5004440;28;20852;-84
2023/08/30 09:36:13;;;;;;;4.07;3.63;;;24.70;99.90;;;;;;5006001;28;20444;-86
2023/08/30 09:38:39;;;;;;;5.20;3.10;;;25.10;99.90;;;;;;5004933;28;20431;-80
2023/08/30 09:41:06;;;;;;;6.00;4.13;;;26.40;99.90;;;;;;5003867;28;20473;-81
2023/08/30 09:43:35;;;;;;;4.20;3.80;;;24.80;99.90;;;;;;4999334;28;20186;-82
2023/08/30 09:46:05;;;;;;;5.03;3.57;;;25.50;99.90;;;;;;5001287;28;20445;-82
2023/08/30 09:48:32;;;;;;;7.53;4.43;;;26.60;99.90;;;;;;5000782;28;20469;-80
2023/08/30 09:50:59;;;;;;;4.37;3.80;;;26.10;99.90;;;;;;5005996;28;21208;-84
2023/08/30 09:53:27;;;;;;;7.13;3.67;;;25.50;99.90;;;;;;4999548;28;20442;-83
2023/08/30 09:55:53;;;;;;;4.10;3.70;;;25.40;99.90;;;;;;5003786;28;20540;-83
2023/08/30 09:58:21;;;;;;;4.90;3.80;;;25.60;99.90;;;;;;5000278;28;20865;-83
2023/08/30 10:00:47;;;;;;;4.40;3.93;;;24.10;99.90;;;;;;4998007;28;20495;-83
2023/08/30 10:03:13;;;;;;;6.77;4.90;;;22.20;99.90;;;;;;5001551;28;21946;-84
2023/08/30 10:05:40;;;;;;;9.13;4.70;;;21.70;99.90;;;;;;5002808;28;20476;-83
2023/08/30 10:08:08;;;;;;;4.20;3.80;;;21.40;99.90;;;;;;5000225;28;20436;-84
2023/08/30 10:10:35;;;;;;;4.17;3.77;;;22.00;99.90;;;;;;5000790;28;20440;-84
2023/08/30 10:13:01;;;;;;;6.57;4.50;;;23.30;99.90;;;;;;5016891;28;20912;-81
2023/08/30 10:15:30;;;;;;;5.30;4.80;;;23.40;99.90;;;;;;5002484;28;21090;-79
2023/08/30 10:17:58;;;;;;;11.83;4.43;;;22.10;99.90;;;;;;5005188;28;20418;-81
2023/08/30 10:20:24;;;;;;;5.23;4.33;;;22.70;99.90;;;;;;5008301;28;20492;-81
2023/08/30 10:22:52;;;;;;;7.17;4.40;;;22.30;99.90;;;;;;5004541;28;20449;-83
2023/08/30 10:25:22;;;;;;;6.70;4.40;;;22.30;99.90;;;;;;4999276;28;20444;-80
2023/08/30 10:27:49;;;;;;;6.17;4.13;;;22.30;99.90;;;;;;5000379;28;20437;-81
2023/08/30 10:30:16;;;;;;;5.43;4.87;;;21.70;99.90;;;;;;4999952;28;20438;-85
2023/08/30 10:32:44;;;;;;;5.23;4.43;;;21.10;99.90;;;;;;4996783;28;20466;-83
2023/08/30 10:35:18;;;;;;;7.30;4.93;;;20.60;99.90;;;;;;4999497;28;20461;-79
2023/08/30 10:37:54;;;;;;;7.10;4.63;;;20.40;99.90;;;;;;5002208;28;20940;-82
2023/08/30 10:40:21;;;;;;;4.40;4.00;;;20.80;99.90;;;;;;5008405;28;20426;-83
2023/08/30 10:42:58;;;;;;;4.53;4.13;;;20.60;99.90;;;;;;5005147;28;20516;-80
2023/08/30 10:45:24;;;;;;;10.80;4.37;;;20.70;99.90;;;;;;5001884;28;21189;-82
2023/08/30 10:47:55;;;;;;;4.60;3.80;;;20.80;99.90;;;;;;5007940;28;20887;-78
2023/08/30 10:50:28;;;;;;;3.57;3.27;;;21.10;99.90;;;;;;5003681;28;20919;-81
2023/08/30 10:52:57;;;;;;;5.40;3.73;;;20.20;99.90;;;;;;5003265;28;20452;-85
2023/08/30 10:55:23;;;;;;;4.73;3.67;;;20.20;99.90;;;;;;5000326;28;20489;-81
2023/08/30 10:58:04;;;;;;;4.30;3.73;;;19.90;99.90;;;;;;4999572;28;20976;-82
2023/08/30 11:00:31;;;;;;;3.70;3.40;;;20.20;99.90;;;;;;5014706;28;21070;-84
2023/08/30 11:02:57;;;;;;;3.83;2.93;;;20.30;99.90;;;;;;5003418;28;20947;-83
2023/08/30 11:05:24;;;;;;;5.60;3.53;;;20.70;99.90;;;;;;4993554;28;20962;-80
2023/08/30 11:07:51;;;;;;;6.33;3.33;;;20.90;99.90;;;;;;4998750;28;20464;-82
2023/08/30 11:10:17;;;;;;;3.57;3.20;;;;;;;;;;5003424;28;20426;-81
2023/08/30 11:12:44;;;;;;;3.37;2.73;;;21.20;99.90;;;;;;5010624;28;20456;-84
2023/08/30 11:15:10;;;;;;;2.63;2.30;;;21.40;99.90;;;;;;4998995;28;20563;-82
2023/08/30 11:17:36;;;;;;;5.13;2.83;;;21.50;99.90;;;;;;4999486;28;21819;-80
2023/08/30 11:20:13;;;;;;;3.07;2.77;;;21.80;99.90;;;;;;5000094;28;20442;-76
2023/08/30 11:22:44;;;;;;;3.03;2.70;;;21.90;99.90;;;;;;5002638;28;20503;-80
2023/08/30 11:25:11;;;;;;;3.23;2.67;;;21.90;99.90;;;;;;5001167;28;20426;-81
2023/08/30 11:27:40;;;;;;;5.00;2.53;;;23.00;99.90;;;;;;5001858;28;20528;-83
2023/08/30 11:30:10;;;;;;;4.87;3.23;;;21.60;99.90;;;;;;4998900;28;20445;-80
2023/08/30 11:32:38;;;;;;;4.20;2.57;;;21.50;99.90;;;;;;5002224;28;20583;-81
2023/08/30 11:35:04;;;;;;;4.47;2.97;;;20.90;99.90;;;;;;5000851;28;20470;-76
2023/08/30 11:37:31;;;;;;;4.80;3.57;;;20.50;99.90;;;;;;5023278;28;20475;-76
2023/08/30 11:39:56;;;;;;;4.50;2.83;;;20.30;99.90;;;;;;5020558;28;20438;-75
2023/08/30 11:42:22;;;;;;;2.70;2.40;;;20.50;99.90;;;;;;5008176;28;20469;-76
2023/08/30 11:44:49;;;;;;;2.90;2.60;;;20.90;99.90;;;;;;5013749;28;20532;-79
2023/08/30 11:47:19;;;;;;;8.83;2.87;;;21.40;99.90;;;;;;5016398;28;20209;-80
2023/08/30 11:49:45;;;;;;;3.40;2.33;;;21.90;99.90;;;;;;5005221;28;20463;-82
2023/08/30 11:52:11;;;;;;;3.47;2.37;;;22.20;99.90;;;;;;5003750;28;20509;-80
2023/08/30 11:54:37;;;;;;;4.17;3.00;;;21.70;99.90;;;;;;5005168;28;20491;-79
2023/08/30 11:57:03;;;;;;;3.67;3.37;;;21.70;99.90;;;;;;5003910;28;20191;-82
2023/08/30 11:59:28;;;;;;;2.80;2.60;;;21.60;99.90;;;;;;5004555;28;20190;-79
2023/08/30 12:01:54;;;;;;;4.23;2.97;;;21.40;99.90;;;;;;4999043;28;20213;-82
2023/08/30 12:04:20;;;;;;;3.07;2.73;;;20.70;99.90;;;;;;5003193;28;20179;-78
2023/08/30 12:06:54;;;;;;;3.73;3.10;;;20.70;99.90;;;;;;5003603;28;20422;-78
2023/08/30 12:09:23;;;;;;;3.40;3.10;;;20.80;99.90;;;;;;5006720;28;20183;-79
2023/08/30 12:11:51;;;;;;;2.63;2.43;;;21.00;99.90;;;;;;5002004;28;20875;-81
2023/08/30 12:14:17;;;;;;;3.60;2.27;;;21.10;99.90;;;;;;5003586;28;20476;-80
2023/08/30 12:16:45;;;;;;;4.30;2.70;;;21.50;99.90;;;;;;5003454;28;20506;-76
2023/08/30 12:19:10;;;;;;;2.43;2.10;;;21.80;99.90;;;;;;5001063;28;20475;-80
2023/08/30 12:21:41;;;;;;;3.07;2.50;;;22.60;99.90;;;;;;5006179;28;20521;-80
2023/08/30 12:24:06;;;;;;;4.37;2.70;;;23.00;99.90;;;;;;5005501;28;20241;-83
2023/08/30 12:26:32;;;;;;;2.70;2.27;;;22.90;99.90;;;;;;5000361;28;20442;-82
2023/08/30 12:28:58;;;;;;;5.13;2.80;;;23.80;99.90;;;;;;5000412;28;20176;-83
2023/08/30 12:31:23;;;;;;;5.40;2.43;;;24.20;99.90;;;;;;5002977;28;21082;-82
2023/08/30 12:33:49;;;;;;;5.73;2.13;;;24.50;99.90;;;;;;4997645;28;20666;-83
2023/08/30 12:36:14;;;;;;;4.40;2.60;;;24.60;99.90;;;;;;4998949;28;20187;-82
2023/08/30 12:38:40;;;;;;;2.43;2.23;;;24.40;99.90;;;;;;4997942;28;20186;-81
2023/08/30 12:41:05;;;;;;;2.30;2.10;;;24.20;99.90;;;;;;4997494;28;20213;-79